createdAt,value
2022-07-29T00:00:33.837Z,102093.91
2022-07-29T00:03:02.036Z,102103.63
2022-07-29T00:05:30.333Z,102108.94
2022-07-29T00:07:58.621Z,102100.94
2022-07-29T00:10:28.055Z,102103.63
2022-07-29T00:12:56.210Z,102100.16
2022-07-29T00:15:24.362Z,102098.44
2022-07-29T00:17:52.502Z,102100.25
2022-07-29T00:20:20.892Z,102102.88
2022-07-29T00:22:49.062Z,102102.03
2022-07-29T00:25:17.046Z,102104.75
2022-07-29T00:27:47.255Z,102094.97
2022-07-29T00:30:15.907Z,102105.59
2022-07-29T00:32:44.159Z,102114.50
2022-07-29T00:35:29.769Z,102097.69
2022-07-29T00:37:57.641Z,102105.66
2022-07-29T00:40:25.962Z,102103.88
2022-07-29T00:42:55.441Z,102115.44
2022-07-29T00:45:24.063Z,102105.75
2022-07-29T00:47:52.184Z,102093.41
2022-07-29T00:50:20.545Z,102109.25
2022-07-29T00:52:48.778Z,102107.53
2022-07-29T00:55:17.975Z,102106.66
2022-07-29T00:57:47.230Z,102104.91
2022-07-29T01:00:19.613Z,102112.84
2022-07-29T01:02:49.423Z,102109.25
2022-07-29T01:05:20.058Z,102108.41
2022-07-29T01:07:49.155Z,102109.31
2022-07-29T01:10:18.903Z,102105.81
2022-07-29T01:12:50.206Z,102122.66
2022-07-29T01:15:19.979Z,102116.50
2022-07-29T01:17:55.388Z,102109.41
2022-07-29T01:20:33.243Z,102105.88
2022-07-29T01:23:17.676Z,102121.81
2022-07-29T01:26:01.218Z,102118.28
2022-07-29T01:29:07.729Z,102127.13
2022-07-29T01:31:59.366Z,102125.34
2022-07-29T01:34:37.476Z,102101.50
2022-07-29T01:37:17.734Z,102119.22
2022-07-29T01:39:49.796Z,102114.72
2022-07-29T01:42:26.979Z,102119.19
2022-07-29T01:45:01.467Z,102127.16
2022-07-29T01:47:41.300Z,102120.09
2022-07-29T01:50:13.933Z,102125.38
2022-07-29T01:52:54.327Z,102123.53
2022-07-29T01:55:24.523Z,102127.97
2022-07-29T01:57:53.378Z,102126.25
2022-07-29T02:00:24.450Z,102107.72
2022-07-29T02:02:54.946Z,102123.66
2022-07-29T02:05:25.413Z,102116.56
2022-07-29T02:07:57.047Z,102124.56
2022-07-29T02:10:29.153Z,102111.31
2022-07-29T02:12:59.306Z,102113.91
2022-07-29T02:15:31.320Z,102129.00
2022-07-29T02:18:03.489Z,102113.13
2022-07-29T02:20:33.210Z,102125.50
2022-07-29T02:23:02.859Z,102136.09
2022-07-29T02:25:38.269Z,102136.09
2022-07-29T02:28:08.086Z,102127.22
2022-07-29T02:30:41.345Z,102130.78
2022-07-29T02:33:12.219Z,102141.41
2022-07-29T02:35:43.089Z,102138.72
2022-07-29T02:38:31.821Z,102130.75
2022-07-29T02:41:02.271Z,102137.84
2022-07-29T02:43:33.073Z,102130.78
2022-07-29T02:46:06.068Z,102121.91
2022-07-29T02:48:58.902Z,102134.25
2022-07-29T02:51:41.508Z,102139.53
2022-07-29T02:54:17.078Z,102141.31
2022-07-29T02:56:48.072Z,102143.03
2022-07-29T02:59:19.396Z,102140.38
2022-07-29T03:01:50.112Z,102142.19
2022-07-29T03:04:25.838Z,102147.53
2022-07-29T03:06:55.645Z,102143.16
2022-07-29T03:09:25.287Z,102150.22
2022-07-29T03:11:55.654Z,102157.28
2022-07-29T03:14:25.181Z,102152.03
2022-07-29T03:16:55.420Z,102152.03
2022-07-29T03:19:23.820Z,102150.19
2022-07-29T03:21:52.014Z,102155.53
2022-07-29T03:24:40.771Z,102146.75
2022-07-29T03:27:08.850Z,102158.22
2022-07-29T03:29:37.245Z,102146.75
2022-07-29T03:32:09.042Z,102156.47
2022-07-29T03:34:39.018Z,102152.94
2022-07-29T03:37:08.045Z,102151.16
2022-07-29T03:39:42.583Z,102155.56
2022-07-29T03:42:14.185Z,102155.56
2022-07-29T03:44:47.685Z,102145.00
2022-07-29T03:47:19.302Z,102149.38
2022-07-29T03:49:51.185Z,102152.06
2022-07-29T03:52:20.099Z,102152.06
2022-07-29T03:54:48.339Z,102151.19
2022-07-29T03:57:18.419Z,102153.81
2022-07-29T03:59:47.455Z,102148.53
2022-07-29T04:02:21.867Z,102148.56
2022-07-29T04:04:51.237Z,102137.88
2022-07-29T04:07:19.549Z,102153.84
2022-07-29T04:09:47.524Z,102141.44
2022-07-29T04:12:15.782Z,102162.66
2022-07-29T04:14:43.873Z,102160.88
2022-07-29T04:17:11.900Z,102152.03
2022-07-29T04:19:41.404Z,102159.09
2022-07-29T04:22:09.469Z,102158.25
2022-07-29T04:24:37.705Z,102145.88
2022-07-29T04:27:05.987Z,102166.19
2022-07-29T04:29:34.063Z,102161.75
2022-07-29T04:32:02.128Z,102160.88
2022-07-29T04:34:30.329Z,102152.03
2022-07-29T04:36:59.901Z,102161.75
2022-07-29T04:39:29.627Z,102157.31
2022-07-29T04:41:59.071Z,102157.31
2022-07-29T04:44:28.588Z,102157.28
2022-07-29T04:46:57.715Z,102165.25
2022-07-29T04:49:26.082Z,102161.69
2022-07-29T04:51:54.462Z,102169.66
2022-07-29T04:54:23.856Z,102168.75
2022-07-29T04:56:53.748Z,102166.97
2022-07-29T04:59:21.820Z,102175.78
2022-07-29T05:01:49.948Z,102180.16
2022-07-29T05:04:18.751Z,102166.91
2022-07-29T05:06:47.379Z,102174.84
2022-07-29T05:09:15.360Z,102173.94
2022-07-29T05:11:45.075Z,102155.38
2022-07-29T05:14:13.626Z,102157.94
2022-07-29T05:16:42.993Z,102164.97
2022-07-29T05:19:14.379Z,102167.63
2022-07-29T05:21:43.152Z,102174.72
2022-07-29T05:24:11.214Z,102170.28
2022-07-29T05:26:39.898Z,102171.16
2022-07-29T05:29:44.344Z,102159.63
2022-07-29T05:31:57.861Z,102153.41
2022-07-29T05:34:26.181Z,102148.06
2022-07-29T05:36:54.480Z,102160.38
2022-07-29T05:39:22.972Z,102125.06
2022-07-29T05:42:11.647Z,102163.88
2022-07-29T05:44:42.008Z,102158.53
2022-07-29T05:47:10.071Z,102164.69
2022-07-29T05:49:38.366Z,102145.22
2022-07-29T05:52:07.300Z,102166.31
2022-07-29T05:54:35.521Z,102152.09
2022-07-29T05:57:03.742Z,102158.28
2022-07-29T05:59:32.114Z,102163.50
2022-07-29T06:02:01.579Z,102165.19
2022-07-29T06:04:29.839Z,102158.06
2022-07-29T06:06:58.020Z,102156.22
2022-07-29T06:09:27.001Z,102161.56
2022-07-29T06:11:55.109Z,102160.56
2022-07-29T06:14:23.264Z,102152.50
2022-07-29T06:16:51.269Z,102166.63
2022-07-29T06:19:21.368Z,102162.16
2022-07-29T06:21:50.486Z,102158.47
2022-07-29T06:24:18.969Z,102145.16
2022-07-29T06:26:47.453Z,102160.97
2022-07-29T06:29:15.670Z,102164.50
2022-07-29T06:31:43.634Z,102161.84
2022-07-29T06:34:11.757Z,102167.97
2022-07-29T06:36:41.325Z,102167.00
2022-07-29T06:39:11.706Z,102163.38
2022-07-29T06:41:40.597Z,102146.53
2022-07-29T06:44:08.803Z,102163.25
2022-07-29T06:46:37.525Z,102159.72
2022-07-29T06:49:05.965Z,102162.31
2022-07-29T06:51:34.291Z,102162.22
2022-07-29T06:54:06.470Z,102149.00
2022-07-29T06:56:39.942Z,102160.47
2022-07-29T06:59:09.415Z,102151.50
2022-07-29T07:01:38.557Z,102168.38
2022-07-29T07:04:06.806Z,102159.50
2022-07-29T07:06:34.855Z,102156.69
2022-07-29T07:09:04.763Z,102158.34
2022-07-29T07:11:33.011Z,102163.56
2022-07-29T07:14:03.901Z,102159.97
2022-07-29T07:16:42.946Z,102152.78
2022-07-29T07:19:11.129Z,102168.59
2022-07-29T07:21:42.169Z,102158.72
2022-07-29T07:24:12.918Z,102164.78
2022-07-29T07:26:41.392Z,102164.78
2022-07-29T07:29:09.352Z,102141.88
2022-07-29T07:31:39.233Z,102166.75
2022-07-29T07:34:07.684Z,102155.25
2022-07-29T07:36:35.755Z,102157.69
2022-07-29T07:39:04.779Z,102171.81
2022-07-29T07:41:34.217Z,102169.16
2022-07-29T07:44:02.641Z,102159.34
2022-07-29T07:46:31.176Z,102168.09
2022-07-29T07:48:59.340Z,102159.16
2022-07-29T07:51:28.027Z,102171.47
2022-07-29T07:53:56.257Z,102171.19
2022-07-29T07:56:25.781Z,102148.97
2022-07-29T07:58:55.372Z,102159.63
2022-07-29T08:01:24.261Z,102125.38
2022-07-29T08:03:52.495Z,102153.34
2022-07-29T08:06:20.777Z,102158.41
2022-07-29T08:08:49.283Z,102159.13
2022-07-29T08:11:17.984Z,102156.56
2022-07-29T08:13:46.060Z,102157.88
2022-07-29T08:16:16.694Z,102164.44
2022-07-29T08:18:46.393Z,102160.69
2022-07-29T08:21:15.514Z,102164.34
2022-07-29T08:23:59.695Z,102160.69
2022-07-29T08:26:28.944Z,102133.16
2022-07-29T08:28:57.381Z,102153.47
2022-07-29T08:31:26.828Z,102162.94
2022-07-29T08:33:54.934Z,102160.88
2022-07-29T08:36:23.402Z,102155.31
2022-07-29T08:38:52.073Z,102159.47
2022-07-29T08:41:20.909Z,102165.44
2022-07-29T08:43:49.948Z,102152.50
2022-07-29T08:46:18.577Z,102147.97
2022-07-29T08:48:48.662Z,102160.66
2022-07-29T08:51:18.803Z,102158.16
2022-07-29T08:53:50.932Z,102150.56
2022-07-29T08:56:21.391Z,102156.34
2022-07-29T08:58:51.778Z,102164.09
2022-07-29T09:01:35.584Z,102158.19
2022-07-29T09:04:10.558Z,102159.16
2022-07-29T09:06:42.326Z,102164.16
2022-07-29T09:09:11.008Z,102163.41
2022-07-29T09:11:39.752Z,102160.66
2022-07-29T09:14:08.430Z,102138.09
2022-07-29T09:16:53.537Z,102158.53
2022-07-29T09:19:25.954Z,102167.72
2022-07-29T09:22:00.460Z,102159.69
2022-07-29T09:24:44.908Z,102152.09
2022-07-29T09:27:21.307Z,102158.53
2022-07-29T09:29:50.175Z,102164.41
2022-07-29T09:32:18.278Z,102151.19
2022-07-29T09:34:48.025Z,102165.88
2022-07-29T09:37:28.341Z,102166.56
2022-07-29T09:39:56.530Z,102173.56
2022-07-29T09:42:31.381Z,102170.25
2022-07-29T09:44:59.429Z,102177.56
2022-07-29T09:47:43.614Z,102170.25
2022-07-29T09:50:13.785Z,102162.84
2022-07-29T09:52:50.176Z,102156.75
2022-07-29T09:55:19.893Z,102157.38
2022-07-29T09:57:49.088Z,102161.47
2022-07-29T10:00:19.241Z,102154.97
2022-07-29T10:02:48.817Z,102153.88
2022-07-29T10:05:23.542Z,102146.13
2022-07-29T10:07:54.272Z,102150.50
2022-07-29T10:10:27.502Z,102151.47
2022-07-29T10:12:59.055Z,102149.97
2022-07-29T10:15:31.442Z,102135.31
2022-07-29T10:18:00.117Z,102145.69
2022-07-29T10:20:30.323Z,102147.06
2022-07-29T10:22:58.701Z,102152.19
2022-07-29T10:25:28.072Z,102146.69
2022-07-29T10:27:56.382Z,102150.16
2022-07-29T10:30:26.537Z,102145.09
2022-07-29T10:33:11.213Z,102144.63
2022-07-29T10:35:56.285Z,102145.81
2022-07-29T10:38:46.043Z,102141.28
2022-07-29T10:44:26.908Z,102136.31
2022-07-29T10:46:55.933Z,102113.09
2022-07-29T10:49:27.831Z,102133.16
2022-07-29T10:52:06.206Z,102132.44
2022-07-29T10:54:46.167Z,102134.56
2022-07-29T10:57:25.766Z,102133.63
2022-07-29T11:00:32.249Z,102132.78
2022-07-29T11:03:04.867Z,102127.53
2022-07-29T11:05:56.243Z,102125.19
2022-07-29T11:08:29.332Z,102131.50
2022-07-29T11:11:33.560Z,102127.06
2022-07-29T11:14:03.587Z,102128.47
2022-07-29T11:17:06.900Z,102113.84
2022-07-29T11:19:40.275Z,102129.38
2022-07-29T11:22:11.973Z,102121.84
2022-07-29T11:24:50.304Z,102133.34
2022-07-29T11:27:21.133Z,102117.66
2022-07-29T11:29:54.957Z,102112.47
2022-07-29T11:32:25.562Z,102126.53
2022-07-29T11:35:16.697Z,102117.06
2022-07-29T11:40:37.105Z,102120.41
2022-07-29T11:43:07.328Z,102134.25
2022-07-29T11:45:48.544Z,102127.41
2022-07-29T11:48:28.955Z,102116.91
2022-07-29T11:51:03.109Z,102111.63
2022-07-29T11:53:33.120Z,102114.72
2022-07-29T11:56:25.638Z,102116.09
2022-07-29T11:59:08.503Z,102114.91
2022-07-29T12:01:37.136Z,102110.09
2022-07-29T12:04:06.888Z,102111.13
2022-07-29T12:06:35.127Z,102105.03
2022-07-29T12:09:14.531Z,102104.41
2022-07-29T12:11:45.032Z,102102.53
2022-07-29T12:14:29.561Z,102105.03
2022-07-29T12:16:58.044Z,102106.03
2022-07-29T12:19:27.684Z,102102.09
2022-07-29T12:22:00.864Z,102100.38
2022-07-29T12:24:45.177Z,102098.34
2022-07-29T12:27:29.265Z,102087.16
2022-07-29T12:29:58.752Z,102096.03
2022-07-29T12:32:33.975Z,102108.75
2022-07-29T12:35:04.809Z,102088.78
2022-07-29T12:37:41.306Z,102086.78
2022-07-29T12:40:12.670Z,102092.16
2022-07-29T12:42:42.326Z,102096.09
2022-07-29T12:45:10.714Z,102095.09
2022-07-29T12:47:54.633Z,102093.22
2022-07-29T12:50:26.298Z,102084.22
2022-07-29T12:52:54.803Z,102099.19
2022-07-29T12:55:40.611Z,102101.38
2022-07-29T12:58:10.496Z,102089.94
2022-07-29T13:00:39.033Z,102097.53
2022-07-29T13:03:08.015Z,102092.38
2022-07-29T13:05:48.537Z,102095.19
2022-07-29T13:08:20.076Z,102070.22
2022-07-29T13:10:50.324Z,102076.78
2022-07-29T13:13:19.901Z,102088.25
2022-07-29T13:15:49.263Z,102081.34
2022-07-29T13:18:30.040Z,102076.53
2022-07-29T13:20:58.734Z,102078.03
2022-07-29T13:23:26.744Z,102062.97
2022-07-29T13:25:54.867Z,102073.84
2022-07-29T13:28:25.356Z,102067.78
2022-07-29T13:30:53.456Z,102066.03
2022-07-29T13:33:22.046Z,102045.94
2022-07-29T13:35:50.254Z,102067.03
2022-07-29T13:38:18.439Z,102064.16
2022-07-29T13:40:46.909Z,102064.03
2022-07-29T13:43:15.467Z,102058.31
2022-07-29T13:45:44.976Z,102055.91
2022-07-29T13:48:13.306Z,102051.78
2022-07-29T13:50:41.406Z,102053.44
2022-07-29T13:53:09.671Z,102051.63
2022-07-29T13:55:45.899Z,102042.78
2022-07-29T13:58:13.896Z,102050.59
2022-07-29T14:00:41.978Z,102056.53
2022-07-29T14:03:11.647Z,102040.59
2022-07-29T14:05:39.626Z,102048.75
2022-07-29T14:08:07.942Z,102039.34
2022-07-29T14:10:36.357Z,102045.34
2022-07-29T14:13:04.404Z,102035.97
2022-07-29T14:15:32.429Z,102042.75
2022-07-29T14:18:00.821Z,102043.53
2022-07-29T14:20:30.801Z,102042.88
2022-07-29T14:22:58.893Z,102038.66
2022-07-29T14:25:27.264Z,102046.97
2022-07-29T14:27:55.297Z,102040.59
2022-07-29T14:30:26.625Z,102026.97
2022-07-29T14:32:54.973Z,102022.53
2022-07-29T14:35:23.177Z,102033.97
2022-07-29T14:37:52.619Z,102031.16
2022-07-29T14:40:20.938Z,102037.00
2022-07-29T14:42:49.078Z,102036.50
2022-07-29T14:45:17.104Z,102035.50
2022-07-29T14:47:45.394Z,102021.66
2022-07-29T14:50:14.533Z,102034.97
2022-07-29T14:52:42.521Z,102039.34
2022-07-29T14:55:16.421Z,102026.72
2022-07-29T14:57:48.480Z,102027.34
2022-07-29T15:00:17.167Z,102027.25
2022-07-29T15:03:01.446Z,102027.25
2022-07-29T15:05:31.279Z,102030.53
2022-07-29T15:07:59.850Z,102037.50
2022-07-29T15:10:29.800Z,102008.41
2022-07-29T15:12:58.873Z,102026.91
2022-07-29T15:15:27.269Z,102014.44
2022-07-29T15:17:55.218Z,102035.50
2022-07-29T15:20:26.449Z,102030.34
2022-07-29T15:22:56.493Z,102004.06
2022-07-29T15:25:24.708Z,102032.72
2022-07-29T15:27:59.191Z,102035.34
2022-07-29T15:30:32.930Z,102036.78
2022-07-29T15:33:01.420Z,102030.72
2022-07-29T15:35:29.435Z,102011.44
2022-07-29T15:37:57.535Z,102026.28
2022-07-29T15:40:25.623Z,102029.72
2022-07-29T15:42:54.963Z,102029.84
2022-07-29T15:45:23.146Z,102026.47
2022-07-29T15:47:51.517Z,102026.34
2022-07-29T15:50:20.159Z,102029.34
2022-07-29T15:52:48.266Z,102025.16
2022-07-29T15:55:16.899Z,102020.47
2022-07-29T15:57:44.884Z,102027.56
2022-07-29T16:00:17.413Z,102028.41
2022-07-29T16:02:45.635Z,102021.50
2022-07-29T16:05:13.948Z,102028.81
2022-07-29T16:07:42.039Z,102028.25
2022-07-29T16:10:10.440Z,102033.78
2022-07-29T16:12:38.597Z,102022.66
2022-07-29T16:15:10.384Z,102015.28
2022-07-29T16:17:40.702Z,102026.03
2022-07-29T16:20:09.982Z,102017.28
2022-07-29T16:22:40.704Z,102014.09
2022-07-29T16:25:09.813Z,102009.06
2022-07-29T16:27:38.423Z,102014.44
2022-07-29T16:30:11.046Z,101980.94
2022-07-29T16:32:40.630Z,102005.31
2022-07-29T16:35:09.984Z,102006.69
2022-07-29T16:37:39.325Z,102008.44
2022-07-29T16:40:11.369Z,102013.81
2022-07-29T16:42:48.022Z,102005.06
2022-07-29T16:45:16.665Z,101995.28
2022-07-29T16:47:47.759Z,102000.75
2022-07-29T16:50:15.707Z,101989.19
2022-07-29T16:52:43.953Z,101978.97
2022-07-29T16:55:12.156Z,101964.81
2022-07-29T16:57:41.846Z,101991.31
2022-07-29T17:00:11.113Z,101985.03
2022-07-29T17:02:39.375Z,101989.44
2022-07-29T17:05:10.719Z,101994.91
2022-07-29T17:07:39.110Z,101983.31
2022-07-29T17:10:09.464Z,101986.03
2022-07-29T17:12:38.448Z,101982.66
2022-07-29T17:15:12.047Z,101984.31
2022-07-29T17:17:55.034Z,101980.66
2022-07-29T17:20:26.935Z,101980.66
2022-07-29T17:22:55.047Z,101978.78
2022-07-29T17:25:24.589Z,101980.56
2022-07-29T17:27:56.385Z,101983.50
2022-07-29T17:30:26.955Z,101984.16
2022-07-29T17:32:55.337Z,101982.44
2022-07-29T17:35:41.023Z,101984.56
2022-07-29T17:38:10.800Z,101980.63
2022-07-29T17:40:38.787Z,101983.13
2022-07-29T17:43:09.304Z,101954.75
2022-07-29T17:45:49.376Z,101983.00
2022-07-29T17:48:19.491Z,101970.75
2022-07-29T17:50:48.562Z,101978.81
2022-07-29T17:53:18.406Z,101976.25
2022-07-29T17:55:48.724Z,101977.25
2022-07-29T17:58:17.335Z,101971.88
2022-07-29T18:00:46.109Z,101973.25
2022-07-29T18:03:14.264Z,101978.72
2022-07-29T18:05:43.032Z,101961.09
2022-07-29T18:08:11.473Z,101967.69
2022-07-29T18:10:41.461Z,101959.81
2022-07-29T18:13:09.724Z,101975.56
2022-07-29T18:15:40.487Z,101973.84
2022-07-29T18:18:08.630Z,101974.88
2022-07-29T18:20:37.146Z,101974.16
2022-07-29T18:23:05.455Z,101964.31
2022-07-29T18:25:33.549Z,101977.91
2022-07-29T18:28:03.281Z,101971.94
2022-07-29T18:30:33.811Z,101980.00
2022-07-29T18:35:51.870Z,101978.81
2022-07-29T18:38:21.933Z,101984.41
2022-07-29T18:40:49.871Z,101981.34
2022-07-29T18:43:19.401Z,101983.41
2022-07-29T18:45:48.526Z,101979.31
2022-07-29T18:48:18.395Z,101976.63
2022-07-29T18:50:46.512Z,101991.19
2022-07-29T18:53:14.575Z,101984.38
2022-07-29T18:55:42.587Z,101993.38
2022-07-29T18:58:10.701Z,101984.47
2022-07-29T19:00:40.267Z,101995.44
2022-07-29T19:03:09.722Z,101986.66
2022-07-29T19:05:38.268Z,101988.78
2022-07-29T19:08:07.255Z,101999.31
2022-07-29T19:10:36.338Z,101962.38
2022-07-29T19:13:04.776Z,101994.06
2022-07-29T19:15:32.965Z,101988.91
2022-07-29T19:18:02.326Z,101990.75
2022-07-29T19:20:30.583Z,101999.75
2022-07-29T19:22:58.729Z,101975.78
2022-07-29T19:25:26.930Z,101994.38
2022-07-29T19:27:55.104Z,101997.16
2022-07-29T19:30:23.650Z,101995.34
2022-07-29T19:32:51.688Z,101997.97
2022-07-29T19:35:32.411Z,102004.38
2022-07-29T19:38:01.939Z,101996.44
2022-07-29T19:40:30.384Z,101999.84
2022-07-29T19:42:59.421Z,102003.34
2022-07-29T19:45:28.961Z,102005.03
2022-07-29T19:48:01.338Z,102000.50
2022-07-29T19:50:31.330Z,102001.59
2022-07-29T19:53:00.142Z,102003.34
2022-07-29T19:55:28.486Z,101996.34
2022-07-29T19:57:57.151Z,101998.19
2022-07-29T20:00:26.267Z,101985.88
2022-07-29T20:02:54.347Z,101992.94
2022-07-29T20:05:28.109Z,101998.28
2022-07-29T20:07:58.604Z,101989.28
2022-07-29T20:10:27.102Z,101990.25
2022-07-29T20:12:55.457Z,101990.28
2022-07-29T20:15:23.763Z,101994.66
2022-07-29T20:17:56.942Z,101989.41
2022-07-29T20:20:26.363Z,101998.69
2022-07-29T20:22:55.046Z,101993.59
2022-07-29T20:25:24.769Z,101985.84
2022-07-29T20:27:54.458Z,101986.59
2022-07-29T20:30:23.672Z,101979.47
2022-07-29T20:32:51.885Z,101969.13
2022-07-29T20:35:22.409Z,101981.41
2022-07-29T20:37:52.303Z,101991.28
2022-07-29T20:40:26.067Z,101999.16
2022-07-29T20:42:54.533Z,101994.88
2022-07-29T20:45:23.614Z,101986.34
2022-07-29T20:47:52.243Z,101988.22
2022-07-29T20:50:23.627Z,101995.53
2022-07-29T20:52:52.420Z,101979.66
2022-07-29T20:55:20.646Z,101986.75
2022-07-29T20:57:50.168Z,101992.78
2022-07-29T21:00:18.352Z,101982.22
2022-07-29T21:02:47.411Z,101988.22
2022-07-29T21:05:16.062Z,101982.16
2022-07-29T21:07:44.266Z,101992.72
2022-07-29T21:10:12.492Z,101991.97
2022-07-29T21:12:42.058Z,101984.16
2022-07-29T21:15:13.633Z,101994.78
2022-07-29T21:17:46.951Z,101992.09
2022-07-29T21:20:16.410Z,101984.16
2022-07-29T21:22:45.336Z,101984.16
2022-07-29T21:25:13.876Z,102002.00
2022-07-29T21:27:59.513Z,101988.84
2022-07-29T21:30:29.288Z,101992.34
2022-07-29T21:32:57.360Z,101994.06
2022-07-29T21:36:01.733Z,101996.94
2022-07-29T21:38:16.441Z,101997.03
2022-07-29T21:40:44.978Z,101993.31
2022-07-29T21:43:13.332Z,101991.94
2022-07-29T21:45:44.059Z,101980.56
2022-07-29T21:48:12.045Z,101994.03
2022-07-29T21:50:40.157Z,101997.63
2022-07-29T21:53:08.620Z,101992.28
2022-07-29T21:55:40.922Z,101990.63
2022-07-29T21:58:11.134Z,101987.19
2022-07-29T22:00:39.354Z,101991.78
2022-07-29T22:03:09.126Z,101983.84
2022-07-29T22:05:37.738Z,101987.47
2022-07-29T22:08:08.327Z,101985.69
2022-07-29T22:10:36.799Z,101986.50
2022-07-29T22:13:05.554Z,101985.63
2022-07-29T22:15:33.622Z,101975.38
2022-07-29T22:18:01.763Z,101984.19
2022-07-29T22:20:31.573Z,101993.28
2022-07-29T22:22:59.626Z,101989.69
2022-07-29T22:25:28.407Z,101988.81
2022-07-29T22:27:56.663Z,101989.59
2022-07-29T22:30:25.067Z,101994.09
2022-07-29T22:32:53.177Z,101997.03
2022-07-29T22:35:21.521Z,101986.47
2022-07-29T22:37:51.193Z,101985.78
2022-07-29T22:40:19.250Z,101989.84
2022-07-29T22:42:47.598Z,102005.91
2022-07-29T22:45:15.649Z,101995.44
2022-07-29T22:47:47.940Z,102000.81
2022-07-29T22:50:17.374Z,101993.13
2022-07-29T22:52:45.699Z,101987.97
2022-07-29T22:55:15.754Z,101989.81
2022-07-29T22:57:44.379Z,101991.47
2022-07-29T23:00:13.931Z,101988.97
2022-07-29T23:02:42.291Z,101984.00
2022-07-29T23:05:11.576Z,101978.81
2022-07-29T23:07:39.619Z,101987.44
2022-07-29T23:10:08.607Z,101969.94
2022-07-29T23:12:40.152Z,101991.50
2022-07-29T23:15:08.953Z,101988.72
2022-07-29T23:17:37.161Z,101987.69
2022-07-29T23:20:08.047Z,101957.88
2022-07-29T23:22:36.423Z,101989.47
2022-07-29T23:25:09.107Z,101986.63
2022-07-29T23:27:38.599Z,101952.75
2022-07-29T23:30:10.701Z,101990.63
2022-07-29T23:32:38.683Z,101983.53
2022-07-29T23:35:08.621Z,101992.53
2022-07-29T23:37:37.211Z,101992.66
2022-07-29T23:40:06.625Z,101986.53
2022-07-29T23:42:38.395Z,101989.25
2022-07-29T23:45:07.394Z,101989.16
2022-07-29T23:47:35.662Z,101990.91
2022-07-29T23:50:03.827Z,101994.63
2022-07-29T23:52:31.915Z,101984.06
2022-07-29T23:55:37.998Z,101993.06
2022-07-29T23:57:49.962Z,101971.88
